createdAt,value
2022-09-06T00:01:19.016Z,100459.81
2022-09-06T00:03:51.131Z,100453.59
2022-09-06T00:06:21.513Z,100450.88
2022-09-06T00:08:51.133Z,100444.97
2022-09-06T00:11:20.667Z,100447.66
2022-09-06T00:13:50.442Z,100458.72
2022-09-06T00:16:21.055Z,100460.66
2022-09-06T00:18:55.082Z,100452.28
2022-09-06T00:21:26.096Z,100441.75
2022-09-06T00:23:55.678Z,100445.81
2022-09-06T00:26:25.404Z,100436.41
2022-09-06T00:28:54.828Z,100440.72
2022-09-06T00:31:25.521Z,100445.06
2022-09-06T00:33:57.600Z,100448.00
2022-09-06T00:36:27.045Z,100441.81
2022-09-06T00:38:56.652Z,100446.41
2022-09-06T00:41:26.107Z,100439.91
2022-09-06T00:43:55.534Z,100448.81
2022-09-06T00:46:27.074Z,100448.25
2022-09-06T00:49:00.268Z,100459.88
2022-09-06T00:51:30.093Z,100463.13
2022-09-06T00:53:59.560Z,100464.50
2022-09-06T00:56:28.993Z,100476.06
2022-09-06T00:58:58.430Z,100490.09
2022-09-06T01:01:28.030Z,100514.94
2022-09-06T01:04:00.140Z,100511.16
2022-09-06T01:06:32.965Z,100524.63
2022-09-06T01:09:06.280Z,100533.56
2022-09-06T01:11:44.208Z,100553.22
2022-09-06T01:14:18.138Z,100585.31
2022-09-06T01:16:51.923Z,100604.72
2022-09-06T01:19:59.688Z,100614.69
2022-09-06T01:22:42.038Z,100606.00
2022-09-06T01:25:28.308Z,100623.81
2022-09-06T01:28:41.966Z,100618.41
2022-09-06T01:31:20.727Z,100628.94
2022-09-06T01:33:54.380Z,100639.19
2022-09-06T01:36:25.046Z,100642.72
2022-09-06T01:38:54.481Z,100648.41
2022-09-06T01:41:23.918Z,100647.59
2022-09-06T01:43:53.485Z,100659.47
2022-09-06T01:46:28.580Z,100648.44
2022-09-06T01:49:06.172Z,100638.72
2022-09-06T01:51:39.777Z,100644.31
2022-09-06T01:54:21.767Z,100639.88
2022-09-06T01:56:53.532Z,100638.81
2022-09-06T01:59:39.339Z,100641.63
2022-09-06T02:02:12.625Z,100644.66
2022-09-06T02:04:44.811Z,100648.25
2022-09-06T02:07:17.905Z,100638.34
2022-09-06T02:09:47.818Z,100626.72
2022-09-06T02:12:17.256Z,100615.44
2022-09-06T02:14:48.956Z,100605.38
2022-09-06T02:17:23.313Z,100603.97
2022-09-06T02:19:53.875Z,100588.34
2022-09-06T02:22:24.953Z,100575.94
2022-09-06T02:24:55.251Z,100536.75
2022-09-06T02:27:24.676Z,100508.38
2022-09-06T02:29:54.129Z,100506.22
2022-09-06T02:32:26.758Z,100507.72
2022-09-06T02:34:58.075Z,100502.38
2022-09-06T02:37:28.473Z,100503.47
2022-09-06T02:39:58.019Z,100503.97
2022-09-06T02:42:27.965Z,100503.09
2022-09-06T02:44:57.453Z,100493.81
2022-09-06T02:47:29.452Z,100478.81
2022-09-06T02:49:58.888Z,100474.81
2022-09-06T02:52:28.323Z,100455.19
2022-09-06T02:54:57.897Z,100430.81
2022-09-06T02:57:27.461Z,100427.75
2022-09-06T02:59:56.888Z,100415.09
2022-09-06T03:02:28.900Z,100409.09
2022-09-06T03:04:58.340Z,100406.88
2022-09-06T03:07:27.822Z,100412.66
2022-09-06T03:09:58.371Z,100415.38
2022-09-06T03:12:27.813Z,100425.63
2022-09-06T03:14:57.400Z,100422.25
2022-09-06T03:17:29.422Z,100417.50
2022-09-06T03:19:58.876Z,100408.94
2022-09-06T03:22:28.305Z,100410.78
2022-09-06T03:24:57.745Z,100408.72
2022-09-06T03:27:27.301Z,100410.13
2022-09-06T03:29:56.779Z,100401.84
2022-09-06T03:32:29.229Z,100399.41
2022-09-06T03:34:59.403Z,100404.59
2022-09-06T03:37:28.878Z,100393.34
2022-09-06T03:39:58.348Z,100385.03
2022-09-06T03:42:28.171Z,100385.03
2022-09-06T03:44:57.619Z,100377.53
2022-09-06T03:47:29.638Z,100382.88
2022-09-06T03:49:59.068Z,100385.16
2022-09-06T03:52:28.500Z,100385.97
2022-09-06T03:54:57.920Z,100400.44
2022-09-06T03:57:27.521Z,100400.19
2022-09-06T03:59:56.943Z,100401.84
2022-09-06T04:02:29.051Z,100410.91
2022-09-06T04:04:58.596Z,100405.59
2022-09-06T04:07:28.063Z,100410.88
2022-09-06T04:09:57.487Z,100406.31
2022-09-06T04:12:26.965Z,100404.47
2022-09-06T04:14:56.390Z,100408.28
2022-09-06T04:17:25.842Z,100410.97
2022-09-06T04:19:57.844Z,100414.72
2022-09-06T04:22:27.405Z,100413.84
2022-09-06T04:24:56.834Z,100420.03
2022-09-06T04:27:26.285Z,100425.41
2022-09-06T04:29:56.620Z,100423.22
2022-09-06T04:32:26.139Z,100426.44
2022-09-06T04:34:58.229Z,100428.28
2022-09-06T04:37:27.674Z,100426.63
2022-09-06T04:39:57.143Z,100437.38
2022-09-06T04:42:26.666Z,100433.88
2022-09-06T04:44:56.097Z,100453.09
2022-09-06T04:47:25.540Z,100442.16
2022-09-06T04:49:55.042Z,100436.28
2022-09-06T04:52:30.113Z,100446.00
2022-09-06T04:54:59.849Z,100451.38
2022-09-06T04:57:29.289Z,100455.91
2022-09-06T04:59:58.735Z,100465.78
2022-09-06T05:02:28.226Z,100474.59
2022-09-06T05:04:57.734Z,100481.72
2022-09-06T05:07:29.761Z,100482.91
2022-09-06T05:09:59.422Z,100470.19
2022-09-06T05:12:28.863Z,100470.81
2022-09-06T05:14:58.317Z,100492.81
2022-09-06T05:17:27.965Z,100485.91
2022-09-06T05:19:57.397Z,100485.38
2022-09-06T05:22:29.450Z,100493.56
2022-09-06T05:24:58.873Z,100481.09
2022-09-06T05:27:28.485Z,100481.38
2022-09-06T05:29:57.897Z,100480.72
2022-09-06T05:32:27.336Z,100480.31
2022-09-06T05:34:56.775Z,100485.97
2022-09-06T05:37:29.038Z,100489.38
2022-09-06T05:40:00.284Z,100496.22
2022-09-06T05:42:29.850Z,100494.06
2022-09-06T05:44:59.270Z,100494.75
2022-09-06T05:47:29.340Z,100508.84
2022-09-06T05:49:59.919Z,100512.47
2022-09-06T05:52:33.100Z,100512.66
2022-09-06T05:55:02.527Z,100517.00
2022-09-06T05:57:31.988Z,100518.78
2022-09-06T06:00:01.425Z,100524.91
2022-09-06T06:02:30.935Z,100521.25
2022-09-06T06:05:00.400Z,100526.56
2022-09-06T06:07:32.429Z,100526.38
2022-09-06T06:10:01.846Z,100534.53
2022-09-06T06:12:31.289Z,100540.63
2022-09-06T06:15:00.709Z,100546.03
2022-09-06T06:17:30.415Z,100544.38
2022-09-06T06:19:59.845Z,100549.84
2022-09-06T06:22:31.881Z,100542.91
2022-09-06T06:25:01.307Z,100546.38
2022-09-06T06:27:30.904Z,100544.53
2022-09-06T06:30:00.324Z,100544.00
2022-09-06T06:32:30.124Z,100533.59
2022-09-06T06:34:59.545Z,100536.88
2022-09-06T06:37:29.009Z,100536.00
2022-09-06T06:40:01.075Z,100544.47
2022-09-06T06:42:30.558Z,100544.50
2022-09-06T06:45:00.329Z,100543.19
2022-09-06T06:47:29.789Z,100543.78
2022-09-06T06:49:59.220Z,100538.16
2022-09-06T06:52:28.703Z,100544.09
2022-09-06T06:55:00.726Z,100541.13
2022-09-06T06:57:30.169Z,100548.16
2022-09-06T06:59:59.584Z,100545.44
2022-09-06T07:02:29.060Z,100549.19
2022-09-06T07:04:58.754Z,100548.13
2022-09-06T07:12:50.962Z,100551.34
2022-09-06T07:15:20.427Z,100546.50
2022-09-06T07:17:49.894Z,100550.22
2022-09-06T07:20:20.426Z,100549.94
2022-09-06T07:22:49.876Z,100558.56
2022-09-06T07:25:22.088Z,100554.97
2022-09-06T07:27:51.569Z,100557.06
2022-09-06T07:30:21.499Z,100551.44
2022-09-06T07:32:51.060Z,100548.72
2022-09-06T07:35:20.576Z,100556.41
2022-09-06T07:37:57.016Z,100556.50
2022-09-06T07:40:29.520Z,100565.09
2022-09-06T07:42:59.339Z,100557.06
2022-09-06T07:45:28.777Z,100559.84
2022-09-06T07:47:59.353Z,100561.00
2022-09-06T07:53:29.040Z,100559.84
2022-09-06T07:56:02.956Z,100559.72
2022-09-06T07:58:32.702Z,100563.41
2022-09-06T08:01:21.822Z,100567.13
2022-09-06T08:03:51.506Z,100570.38
2022-09-06T08:06:21.000Z,100579.56
2022-09-06T08:08:57.943Z,100579.34
2022-09-06T08:11:31.744Z,100574.34
2022-09-06T08:14:02.068Z,100578.47
2022-09-06T08:16:32.354Z,100573.22
2022-09-06T08:19:02.794Z,100588.78
2022-09-06T08:21:33.241Z,100585.81
2022-09-06T08:24:03.677Z,100588.41
2022-09-06T08:26:36.978Z,100576.84
2022-09-06T08:29:08.658Z,100573.69
2022-09-06T08:31:38.923Z,100579.75
2022-09-06T08:34:08.432Z,100572.66
2022-09-06T08:36:37.964Z,100574.91
2022-09-06T08:39:09.160Z,100579.66
2022-09-06T08:41:47.979Z,100571.19
2022-09-06T08:47:09.814Z,100584.00
2022-09-06T08:49:40.296Z,100571.19
2022-09-06T08:53:06.258Z,100578.25
2022-09-06T08:55:38.759Z,100578.78
2022-09-06T08:58:24.660Z,100568.53
2022-09-06T09:00:58.672Z,100563.97
2022-09-06T09:03:29.130Z,100560.53
2022-09-06T09:05:59.983Z,100564.19
2022-09-06T09:08:29.714Z,100558.19
2022-09-06T09:11:01.603Z,100554.38
2022-09-06T09:13:36.690Z,100548.88
2022-09-06T09:16:06.200Z,100544.44
2022-09-06T09:18:36.798Z,100541.97
2022-09-06T09:21:06.542Z,100540.44
2022-09-06T09:23:36.008Z,100544.78
2022-09-06T09:26:08.197Z,100546.03
2022-09-06T09:28:40.218Z,100541.88
2022-09-06T09:31:10.230Z,100538.47
2022-09-06T09:33:39.845Z,100528.75
2022-09-06T09:36:10.577Z,100527.31
2022-09-06T09:38:43.682Z,100520.59
2022-09-06T09:41:13.267Z,100511.00
2022-09-06T09:43:45.397Z,100505.78
2022-09-06T09:46:17.889Z,100514.66
2022-09-06T09:48:49.766Z,100509.81
2022-09-06T09:51:26.632Z,100504.19
2022-09-06T09:53:57.651Z,100507.56
2022-09-06T09:56:36.892Z,100505.75
2022-09-06T09:59:10.616Z,100504.84
2022-09-06T10:01:40.112Z,100502.84
2022-09-06T10:07:13.364Z,100496.53
2022-09-06T10:09:43.574Z,100502.00
2022-09-06T10:12:18.393Z,100499.44
2022-09-06T10:14:51.209Z,100491.25
2022-09-06T10:17:21.797Z,100486.47
2022-09-06T10:19:51.266Z,100484.53
2022-09-06T10:22:29.045Z,100486.78
2022-09-06T10:25:37.916Z,100489.56
2022-09-06T10:28:34.651Z,100481.63
2022-09-06T10:31:47.707Z,100480.56
2022-09-06T10:34:52.502Z,100481.38
2022-09-06T10:37:44.326Z,100474.94
2022-09-06T10:40:14.856Z,100473.28
2022-09-06T10:42:46.243Z,100474.06
2022-09-06T10:45:23.267Z,100478.16
2022-09-06T10:48:02.637Z,100474.50
2022-09-06T10:50:40.611Z,100467.75
2022-09-06T10:53:13.585Z,100467.53
2022-09-06T10:55:47.366Z,100462.34
2022-09-06T10:58:17.923Z,100456.53
2022-09-06T11:00:49.227Z,100460.84
2022-09-06T11:06:16.446Z,100460.47
2022-09-06T11:08:51.289Z,100456.13
2022-09-06T11:11:24.291Z,100454.75
2022-09-06T11:13:53.714Z,100453.50
2022-09-06T11:16:25.004Z,100448.13
2022-09-06T11:18:58.843Z,100451.19
2022-09-06T11:21:43.771Z,100440.47
2022-09-06T11:24:14.838Z,100442.50
2022-09-06T11:26:47.472Z,100438.31
2022-09-06T11:29:21.301Z,100440.00
2022-09-06T11:34:56.925Z,100434.25
2022-09-06T11:37:28.065Z,100429.19
2022-09-06T11:43:17.346Z,100426.97
2022-09-06T11:45:51.600Z,100419.78
2022-09-06T11:48:46.205Z,100419.72
2022-09-06T11:51:34.275Z,100420.00
2022-09-06T11:54:09.651Z,100410.53
2022-09-06T11:56:42.240Z,100410.06
2022-09-06T11:59:15.785Z,100407.03
2022-09-06T12:01:47.643Z,100411.53
2022-09-06T12:04:17.133Z,100407.34
2022-09-06T12:07:11.168Z,100410.41
2022-09-06T12:09:41.024Z,100408.53
2022-09-06T12:12:14.785Z,100402.13
2022-09-06T12:14:47.036Z,100397.94
2022-09-06T12:17:25.443Z,100401.94
2022-09-06T12:19:55.447Z,100399.94
2022-09-06T12:23:03.735Z,100400.19
2022-09-06T12:25:59.959Z,100394.41
2022-09-06T12:28:32.449Z,100386.41
2022-09-06T12:31:02.042Z,100389.31
2022-09-06T12:33:33.789Z,100394.22
2022-09-06T12:36:15.865Z,100379.56
2022-09-06T12:38:57.365Z,100377.47
2022-09-06T12:41:31.686Z,100377.69
2022-09-06T12:44:01.533Z,100373.13
2022-09-06T12:46:31.312Z,100370.06
2022-09-06T12:49:05.272Z,100366.91
2022-09-06T12:51:34.916Z,100367.19
2022-09-06T12:54:07.006Z,100365.41
2022-09-06T12:56:39.061Z,100362.56
2022-09-06T12:59:19.472Z,100352.13
2022-09-06T13:02:00.586Z,100354.91
2022-09-06T13:04:35.022Z,100346.31
2022-09-06T13:07:04.512Z,100341.31
2022-09-06T13:09:33.949Z,100334.41
2022-09-06T13:12:09.243Z,100320.84
2022-09-06T13:14:38.867Z,100311.16
2022-09-06T13:17:08.469Z,100322.13
2022-09-06T13:19:38.529Z,100324.78
2022-09-06T13:22:11.101Z,100324.13
2022-09-06T13:24:49.109Z,100324.31
2022-09-06T13:27:37.166Z,100314.56
2022-09-06T13:30:07.631Z,100313.00
2022-09-06T13:32:36.938Z,100318.13
2022-09-06T13:35:07.083Z,100313.38
2022-09-06T13:37:39.544Z,100310.72
2022-09-06T13:41:00.013Z,100310.38
2022-09-06T13:43:33.441Z,100312.06
2022-09-06T13:46:07.793Z,100308.91
2022-09-06T13:48:39.291Z,100297.31
2022-09-06T13:51:09.772Z,100290.59
2022-09-06T13:53:39.239Z,100287.06
2022-09-06T13:56:09.203Z,100284.94
2022-09-06T13:58:41.245Z,100284.13
2022-09-06T14:01:10.777Z,100282.25
2022-09-06T14:03:42.456Z,100276.53
2022-09-06T14:06:12.599Z,100278.88
2022-09-06T14:09:05.902Z,100273.47
2022-09-06T14:11:32.551Z,100283.47
2022-09-06T14:14:04.577Z,100278.06
2022-09-06T14:16:34.486Z,100275.56
2022-09-06T14:19:03.974Z,100271.38
2022-09-06T14:21:33.453Z,100271.72
2022-09-06T14:24:04.517Z,100270.69
2022-09-06T14:26:34.803Z,100271.72
2022-09-06T14:29:08.174Z,100258.38
2022-09-06T14:31:37.717Z,100254.59
2022-09-06T14:34:07.223Z,100270.56
2022-09-06T14:36:36.859Z,100261.00
2022-09-06T14:39:06.475Z,100262.09
2022-09-06T14:41:35.923Z,100248.88
2022-09-06T14:44:09.071Z,100237.03
2022-09-06T14:46:38.662Z,100234.09
2022-09-06T14:49:10.182Z,100233.34
2022-09-06T14:51:40.707Z,100226.13
2022-09-06T14:54:11.036Z,100229.66
2022-09-06T14:56:40.786Z,100234.06
2022-09-06T14:59:12.823Z,100230.13
2022-09-06T15:01:42.628Z,100229.25
2022-09-06T15:04:12.821Z,100225.88
2022-09-06T15:06:47.139Z,100219.59
2022-09-06T15:09:16.902Z,100214.00
2022-09-06T15:11:47.670Z,100206.94
2022-09-06T15:14:20.506Z,100216.09
2022-09-06T15:16:54.894Z,100205.59
2022-09-06T15:19:25.504Z,100212.44
2022-09-06T15:21:55.275Z,100211.72
2022-09-06T15:24:24.730Z,100212.63
2022-09-06T15:26:54.194Z,100209.50
2022-09-06T15:29:27.121Z,100209.94
2022-09-06T15:31:57.257Z,100214.84
2022-09-06T15:34:27.397Z,100215.34
2022-09-06T15:36:57.112Z,100203.97
2022-09-06T15:39:26.577Z,100212.06
2022-09-06T15:41:57.172Z,100222.66
2022-09-06T15:44:29.119Z,100220.50
2022-09-06T15:46:59.546Z,100235.97
2022-09-06T15:49:31.253Z,100238.31
2022-09-06T15:52:01.137Z,100236.72
2022-09-06T15:54:43.177Z,100239.97
2022-09-06T15:57:12.709Z,100238.84
2022-09-06T15:59:44.795Z,100252.03
2022-09-06T16:02:14.592Z,100260.66
2022-09-06T16:04:44.163Z,100250.69
2022-09-06T16:07:13.721Z,100251.19
2022-09-06T16:09:43.406Z,100260.94
2022-09-06T16:12:12.872Z,100265.66
2022-09-06T16:14:44.881Z,100270.13
2022-09-06T16:17:14.541Z,100274.31
2022-09-06T16:19:45.603Z,100275.28
2022-09-06T16:22:15.127Z,100286.34
2022-09-06T16:24:44.920Z,100290.00
2022-09-06T16:27:14.387Z,100298.97
2022-09-06T16:29:46.553Z,100295.28
2022-09-06T16:32:17.345Z,100298.13
2022-09-06T16:34:46.838Z,100312.34
2022-09-06T16:37:16.310Z,100316.72
2022-09-06T16:39:45.820Z,100325.09
2022-09-06T16:42:15.303Z,100340.63
2022-09-06T16:44:47.333Z,100337.69
2022-09-06T16:47:16.936Z,100327.78
2022-09-06T16:49:46.451Z,100301.91
2022-09-06T16:52:15.938Z,100292.34
2022-09-06T16:54:45.479Z,100294.66
2022-09-06T16:57:14.927Z,100298.03
2022-09-06T16:59:46.985Z,100310.66
2022-09-06T17:02:16.574Z,100305.75
2022-09-06T17:04:46.123Z,100319.84
2022-09-06T17:07:15.634Z,100340.38
2022-09-06T17:09:45.093Z,100339.81
2022-09-06T17:12:14.565Z,100323.81
2022-09-06T17:14:44.040Z,100319.59
2022-09-06T17:17:14.610Z,100308.84
2022-09-06T17:19:44.445Z,100321.88
2022-09-06T17:22:14.955Z,100323.41
2022-09-06T17:24:44.599Z,100319.53
2022-09-06T17:27:14.062Z,100320.28
2022-09-06T17:29:43.510Z,100319.13
2022-09-06T17:32:12.993Z,100312.63
2022-09-06T17:34:45.033Z,100308.53
2022-09-06T17:37:14.476Z,100298.78
2022-09-06T17:39:44.057Z,100298.25
2022-09-06T17:42:13.603Z,100297.72
2022-09-06T17:44:44.410Z,100298.22
2022-09-06T17:47:14.222Z,100289.66
2022-09-06T17:49:47.306Z,100291.56
2022-09-06T17:52:16.755Z,100277.53
2022-09-06T17:54:47.077Z,100280.25
2022-09-06T17:57:16.519Z,100283.50
2022-09-06T17:59:45.966Z,100282.31
2022-09-06T18:02:15.459Z,100276.22
2022-09-06T18:04:47.859Z,100272.13
2022-09-06T18:07:17.486Z,100267.00
2022-09-06T18:09:47.879Z,100268.91
2022-09-06T18:12:17.525Z,100264.31
2022-09-06T18:14:47.027Z,100263.00
2022-09-06T18:17:16.469Z,100271.97
2022-09-06T18:19:48.558Z,100265.69
2022-09-06T18:22:17.994Z,100264.81
2022-09-06T18:24:47.449Z,100260.72
2022-09-06T18:27:16.894Z,100266.56
2022-09-06T18:29:46.391Z,100261.44
2022-09-06T18:32:15.835Z,100263.88
2022-09-06T18:34:47.919Z,100276.00
2022-09-06T18:37:17.367Z,100276.53
2022-09-06T18:39:46.938Z,100270.59
2022-09-06T18:42:16.428Z,100264.31
2022-09-06T18:44:45.884Z,100266.16
2022-09-06T18:47:15.345Z,100268.91
2022-09-06T18:49:45.078Z,100272.91
2022-09-06T18:52:18.759Z,100267.75
2022-09-06T18:54:48.302Z,100270.63
2022-09-06T18:57:18.051Z,100271.91
2022-09-06T18:59:47.571Z,100280.19
2022-09-06T19:02:17.124Z,100264.81
2022-09-06T19:04:46.608Z,100262.41
2022-09-06T19:07:18.768Z,100262.09
2022-09-06T19:09:48.400Z,100262.69
2022-09-06T19:12:17.884Z,100262.69
2022-09-06T19:14:47.375Z,100258.59
2022-09-06T19:17:16.863Z,100254.53
2022-09-06T19:19:46.332Z,100247.81
2022-09-06T19:22:18.356Z,100237.63
2022-09-06T19:24:47.997Z,100244.38
2022-09-06T19:27:17.433Z,100241.44
2022-09-06T19:29:47.050Z,100236.31
2022-09-06T19:32:18.709Z,100231.19
2022-09-06T19:34:48.141Z,100230.88
2022-09-06T19:37:23.775Z,100214.78
2022-09-06T19:39:53.268Z,100208.75
2022-09-06T19:42:25.229Z,100205.78
2022-09-06T19:44:54.739Z,100206.31
2022-09-06T19:47:24.170Z,100201.78
2022-09-06T19:49:53.630Z,100204.16
2022-09-06T19:52:25.699Z,100208.47
2022-09-06T19:54:55.169Z,100213.56
2022-09-06T19:57:24.631Z,100204.94
2022-09-06T19:59:54.829Z,100205.75
2022-09-06T20:02:24.297Z,100210.59
2022-09-06T20:04:53.787Z,100215.19
2022-09-06T20:07:27.206Z,100213.56
2022-09-06T20:09:57.041Z,100214.59
2022-09-06T20:12:29.696Z,100207.63
2022-09-06T20:14:59.447Z,100207.63
2022-09-06T20:17:33.859Z,100197.16
2022-09-06T20:20:04.457Z,100201.28
2022-09-06T20:22:36.534Z,100195.66
2022-09-06T20:25:06.222Z,100193.28
2022-09-06T20:27:35.797Z,100193.75
2022-09-06T20:30:05.401Z,100189.75
2022-09-06T20:32:34.830Z,100192.47
2022-09-06T20:35:04.294Z,100198.94
2022-09-06T20:37:38.703Z,100192.72
2022-09-06T20:40:10.087Z,100190.59
2022-09-06T20:42:42.265Z,100184.09
2022-09-06T20:45:12.585Z,100189.75
2022-09-06T20:47:42.147Z,100187.03
2022-09-06T20:50:12.548Z,100192.69
2022-09-06T20:52:44.678Z,100192.41
2022-09-06T20:55:14.172Z,100187.53
2022-09-06T20:57:43.607Z,100176.00
2022-09-06T21:00:14.883Z,100181.13
2022-09-06T21:02:44.330Z,100169.84
2022-09-06T21:05:13.820Z,100170.66
2022-09-06T21:07:45.842Z,100166.09
2022-09-06T21:10:15.330Z,100164.16
2022-09-06T21:12:44.794Z,100149.03
2022-09-06T21:15:14.491Z,100141.75
2022-09-06T21:17:44.709Z,100142.59
2022-09-06T21:20:14.185Z,100141.00
2022-09-06T21:22:46.202Z,100148.00
2022-09-06T21:25:15.680Z,100143.41
2022-09-06T21:27:45.156Z,100151.81
2022-09-06T21:30:15.865Z,100156.38
2022-09-06T21:32:45.297Z,100158.00
2022-09-06T21:35:14.738Z,100174.16
2022-09-06T21:37:46.770Z,100184.66
2022-09-06T21:40:16.399Z,100176.72
2022-09-06T21:42:46.196Z,100174.25
2022-09-06T21:45:15.822Z,100178.22
2022-09-06T21:47:45.249Z,100187.63
2022-09-06T21:50:15.458Z,100185.19
2022-09-06T21:52:47.478Z,100179.81
2022-09-06T21:55:17.173Z,100177.91
2022-09-06T21:57:46.639Z,100173.84
2022-09-06T22:00:18.287Z,100177.38
2022-09-06T22:02:47.881Z,100172.03
2022-09-06T22:05:17.740Z,100169.09
2022-09-06T22:07:49.837Z,100179.88
2022-09-06T22:10:19.489Z,100174.28
2022-09-06T22:12:48.922Z,100182.09
2022-09-06T22:15:19.082Z,100174.88
2022-09-06T22:17:48.541Z,100166.50
2022-09-06T22:20:18.149Z,100162.44
2022-09-06T22:22:50.535Z,100149.00
2022-09-06T22:25:20.073Z,100149.78
2022-09-06T22:27:49.494Z,100148.44
2022-09-06T22:30:22.622Z,100146.81
2022-09-06T22:32:54.944Z,100141.19
2022-09-06T22:35:24.425Z,100139.28
2022-09-06T22:37:56.449Z,100141.75
2022-09-06T22:40:26.301Z,100140.16
2022-09-06T22:42:55.982Z,100129.38
2022-09-06T22:45:25.457Z,100132.88
2022-09-06T22:47:54.985Z,100138.78
2022-09-06T22:50:24.431Z,100142.00
2022-09-06T22:52:56.737Z,100140.16
2022-09-06T22:55:26.422Z,100140.94
2022-09-06T22:57:55.857Z,100138.53
2022-09-06T23:00:26.245Z,100146.06
2022-09-06T23:02:55.734Z,100145.81
2022-09-06T23:05:25.199Z,100151.47
2022-09-06T23:07:57.979Z,100147.41
2022-09-06T23:10:27.536Z,100149.53
2022-09-06T23:12:57.026Z,100153.88
2022-09-06T23:15:26.470Z,100153.09
2022-09-06T23:17:55.904Z,100157.38
2022-09-06T23:20:28.191Z,100154.69
2022-09-06T23:23:00.192Z,100149.84
2022-09-06T23:25:29.621Z,100150.38
2022-09-06T23:28:00.412Z,100155.50
2022-09-06T23:30:29.844Z,100151.72
2022-09-06T23:32:59.470Z,100154.66
2022-09-06T23:35:28.882Z,100140.75
2022-09-06T23:38:00.888Z,100155.03
2022-09-06T23:40:30.331Z,100156.88
2022-09-06T23:42:59.750Z,100164.09
2022-09-06T23:45:29.308Z,100173.81
2022-09-06T23:47:58.710Z,100174.06
2022-09-06T23:50:28.147Z,100181.31
2022-09-06T23:53:00.162Z,100188.88
2022-09-06T23:55:29.596Z,100191.00
2022-09-06T23:57:59.035Z,100192.59
